createdAt,value
2018-12-23T00:00:53.885Z,100556.80
2018-12-23T00:03:22.415Z,100568.70
2018-12-23T00:05:50.591Z,100565.09
2018-12-23T00:08:18.800Z,100569.09
2018-12-23T00:10:46.969Z,100583.13
2018-12-23T00:13:15.116Z,100586.98
2018-12-23T00:15:43.297Z,100590.38
2018-12-23T00:18:11.429Z,100593.60
2018-12-23T00:20:39.531Z,100606.40
2018-12-23T00:23:07.709Z,100609.78
2018-12-23T00:25:35.843Z,100611.98
2018-12-23T00:28:04.007Z,100624.23
2018-12-23T00:30:32.269Z,100624.06
2018-12-23T00:33:00.556Z,100625.58
2018-12-23T00:35:28.786Z,100617.69
2018-12-23T00:37:56.984Z,100617.01
2018-12-23T00:40:25.207Z,100621.88
2018-12-23T00:42:53.446Z,100619.85
2018-12-23T00:45:21.553Z,100620.80
2018-12-23T00:47:49.651Z,100627.41
2018-12-23T00:50:17.863Z,100631.14
2018-12-23T00:52:46.029Z,100625.12
2018-12-23T00:55:14.250Z,100628.06
2018-12-23T00:57:42.384Z,100631.97
2018-12-23T01:00:11.062Z,100638.44
2018-12-23T01:02:39.228Z,100647.08
2018-12-23T01:05:08.118Z,100644.20
2018-12-23T01:07:37.159Z,100651.60
2018-12-23T01:10:06.038Z,100668.01
2018-12-23T01:12:34.277Z,100675.65
2018-12-23T01:15:03.181Z,100696.88
2018-12-23T01:17:31.375Z,100695.98
2018-12-23T01:19:59.532Z,100701.09
2018-12-23T01:22:27.710Z,100708.28
2018-12-23T01:24:56.811Z,100705.45
2018-12-23T01:27:25.489Z,100709.04
2018-12-23T01:29:54.372Z,100715.60
2018-12-23T01:32:22.644Z,100717.95
2018-12-23T01:34:50.922Z,100712.42
2018-12-23T01:37:19.027Z,100716.89
2018-12-23T01:39:47.218Z,100722.72
2018-12-23T01:42:15.530Z,100718.50
2018-12-23T01:44:43.739Z,100724.46
2018-12-23T01:47:12.249Z,100730.27
2018-12-23T01:49:40.402Z,100723.57
2018-12-23T01:52:08.501Z,100725.25
2018-12-23T01:54:36.775Z,100727.82
2018-12-23T01:57:04.929Z,100728.58
2018-12-23T01:59:33.095Z,100728.58
2018-12-23T02:02:01.678Z,100727.41
2018-12-23T02:04:29.855Z,100734.20
2018-12-23T02:06:58.471Z,100729.83
2018-12-23T02:09:26.592Z,100732.41
2018-12-23T02:11:54.865Z,100741.76
2018-12-23T02:14:23.043Z,100730.73
2018-12-23T02:16:51.189Z,100737.20
2018-12-23T02:19:19.332Z,100750.44
2018-12-23T02:21:47.453Z,100747.30
2018-12-23T02:24:15.576Z,100741.44
2018-12-23T02:26:43.788Z,100748.40
2018-12-23T02:29:11.961Z,100751.00
2018-12-23T02:31:40.200Z,100756.02
2018-12-23T02:34:08.485Z,100757.35
2018-12-23T02:36:36.650Z,100750.69
2018-12-23T02:39:07.860Z,100744.63
2018-12-23T02:41:36.199Z,100748.59
2018-12-23T02:44:04.451Z,100754.32
2018-12-23T02:46:32.643Z,100745.90
2018-12-23T02:49:00.873Z,100740.00
2018-12-23T02:51:29.051Z,100743.28
2018-12-23T02:53:57.265Z,100743.48
2018-12-23T02:56:25.401Z,100743.53
2018-12-23T02:58:53.550Z,100747.37
2018-12-23T03:01:21.715Z,100745.77
2018-12-23T03:03:49.828Z,100740.16
2018-12-23T03:06:17.979Z,100741.94
2018-12-23T03:08:46.136Z,100738.36
2018-12-23T03:11:14.324Z,100737.07
2018-12-23T03:13:42.823Z,100741.69
2018-12-23T03:16:11.077Z,100741.74
2018-12-23T03:18:39.672Z,100747.81
2018-12-23T03:21:07.785Z,100743.05
2018-12-23T03:23:35.926Z,100744.48
2018-12-23T03:26:04.139Z,100744.03
2018-12-23T03:28:32.376Z,100737.27
2018-12-23T03:31:00.535Z,100728.42
2018-12-23T03:33:28.660Z,100726.14
2018-12-23T03:35:56.861Z,100730.55
2018-12-23T03:38:25.011Z,100723.53
2018-12-23T03:40:53.308Z,100723.84
2018-12-23T03:43:21.582Z,100723.20
2018-12-23T03:45:50.781Z,100726.22
2018-12-23T03:48:19.022Z,100720.17
2018-12-23T03:50:47.239Z,100722.11
2018-12-23T03:53:15.450Z,100725.77
2018-12-23T03:55:43.758Z,100722.44
2018-12-23T03:58:11.880Z,100713.16
2018-12-23T04:00:40.136Z,100717.23
2018-12-23T04:03:08.310Z,100718.58
2018-12-23T04:05:36.512Z,100722.50
2018-12-23T04:08:04.687Z,100713.75
2018-12-23T04:10:33.030Z,100717.12
2018-12-23T04:13:01.184Z,100720.31
2018-12-23T04:15:29.516Z,100718.91
2018-12-23T04:17:57.632Z,100727.75
2018-12-23T04:20:25.741Z,100720.84
2018-12-23T04:22:53.843Z,100721.14
2018-12-23T04:25:21.968Z,100720.15
2018-12-23T04:27:50.062Z,100715.33
2018-12-23T04:30:18.302Z,100713.99
2018-12-23T04:32:46.364Z,100715.66
2018-12-23T04:35:14.468Z,100716.05
2018-12-23T04:37:42.597Z,100714.77
2018-12-23T04:40:10.871Z,100717.71
2018-12-23T04:42:39.786Z,100718.61
2018-12-23T04:45:08.007Z,100718.02
2018-12-23T04:47:36.161Z,100715.20
2018-12-23T04:50:05.536Z,100718.59
2018-12-23T04:52:33.987Z,100718.91
2018-12-23T04:55:02.167Z,100725.18
2018-12-23T04:57:30.337Z,100726.52
2018-12-23T04:59:58.471Z,100722.17
2018-12-23T05:02:26.651Z,100719.28
2018-12-23T05:04:54.821Z,100720.27
2018-12-23T05:07:23.439Z,100716.67
2018-12-23T05:09:52.242Z,100732.14
2018-12-23T05:12:20.397Z,100735.08
2018-12-23T05:14:48.593Z,100733.48
2018-12-23T05:17:17.281Z,100735.80
2018-12-23T05:19:45.428Z,100733.87
2018-12-23T05:22:14.357Z,100737.27
2018-12-23T05:24:43.424Z,100739.77
2018-12-23T05:27:11.523Z,100740.27
2018-12-23T05:29:39.595Z,100736.10
2018-12-23T05:32:08.655Z,100737.19
2018-12-23T05:34:36.779Z,100744.16
2018-12-23T05:37:05.030Z,100751.38
2018-12-23T05:39:33.184Z,100747.27
2018-12-23T05:42:01.352Z,100739.58
2018-12-23T05:44:29.605Z,100738.52
2018-12-23T05:46:57.799Z,100738.93
2018-12-23T05:49:25.944Z,100736.06
2018-12-23T05:51:54.074Z,100724.87
2018-12-23T05:54:28.984Z,100735.46
2018-12-23T05:56:57.192Z,100740.63
2018-12-23T05:59:25.330Z,100756.30
2018-12-23T06:01:56.792Z,100765.25
2018-12-23T06:04:24.925Z,100761.58
2018-12-23T06:07:00.768Z,100758.46
2018-12-23T06:09:23.226Z,100753.35
2018-12-23T06:11:51.308Z,100754.84
2018-12-23T06:14:19.438Z,100753.37
2018-12-23T06:16:47.674Z,100750.94
2018-12-23T06:19:15.831Z,100752.19
2018-12-23T06:21:44.108Z,100749.16
2018-12-23T06:24:12.306Z,100753.98
2018-12-23T06:26:41.182Z,100760.94
2018-12-23T06:29:09.442Z,100762.87
2018-12-23T06:31:37.879Z,100763.73
2018-12-23T06:34:06.033Z,100761.80
2018-12-23T06:36:34.184Z,100759.05
2018-12-23T06:39:04.820Z,100754.87
2018-12-23T06:41:33.192Z,100751.16
2018-12-23T06:44:01.580Z,100748.06
2018-12-23T06:46:29.818Z,100756.36
2018-12-23T06:48:58.064Z,100761.41
2018-12-23T06:51:26.180Z,100765.64
2018-12-23T06:53:54.704Z,100758.28
2018-12-23T06:56:22.835Z,100764.04
2018-12-23T06:58:51.412Z,100757.83
2018-12-23T07:01:19.585Z,100760.58
2018-12-23T07:03:47.878Z,100760.16
2018-12-23T07:06:16.283Z,100769.30
2018-12-23T07:08:45.073Z,100768.57
2018-12-23T07:11:13.434Z,100769.30
2018-12-23T07:13:41.668Z,100774.83
2018-12-23T07:16:10.480Z,100781.54
2018-12-23T07:18:38.761Z,100773.25
2018-12-23T07:21:06.993Z,100772.41
2018-12-23T07:23:35.869Z,100772.92
2018-12-23T07:26:04.120Z,100763.80
2018-12-23T07:28:32.981Z,100768.64
2018-12-23T07:31:01.161Z,100762.77
2018-12-23T07:33:29.332Z,100766.47
2018-12-23T07:35:58.054Z,100770.95
2018-12-23T07:38:26.229Z,100779.50
2018-12-23T07:40:55.221Z,100777.70
2018-12-23T07:43:23.407Z,100771.64
2018-12-23T07:45:51.548Z,100767.86
2018-12-23T07:48:20.324Z,100774.02
2018-12-23T07:50:48.808Z,100763.34
2018-12-23T07:53:17.981Z,100760.97
2018-12-23T07:55:46.265Z,100763.16
2018-12-23T07:58:14.409Z,100761.83
2018-12-23T08:00:42.653Z,100772.63
2018-12-23T08:03:12.051Z,100775.95
2018-12-23T08:05:40.259Z,100775.63
2018-12-23T08:08:08.521Z,100771.79
2018-12-23T08:10:36.817Z,100767.48
2018-12-23T08:13:04.955Z,100781.17
2018-12-23T08:15:33.119Z,100785.71
2018-12-23T08:18:01.273Z,100778.45
2018-12-23T08:20:30.455Z,100776.20
2018-12-23T08:22:58.730Z,100789.19
2018-12-23T08:25:35.381Z,100787.71
2018-12-23T08:28:03.634Z,100790.28
2018-12-23T08:30:32.131Z,100781.39
2018-12-23T08:33:00.251Z,100787.26
2018-12-23T08:35:28.351Z,100787.27
2018-12-23T08:37:56.471Z,100778.56
2018-12-23T08:40:24.688Z,100782.14
2018-12-23T08:42:52.963Z,100784.09
2018-12-23T08:45:21.172Z,100787.38
2018-12-23T08:47:49.594Z,100787.38
2018-12-23T08:50:18.680Z,100790.06
2018-12-23T08:52:46.816Z,100791.39
2018-12-23T08:55:15.754Z,100788.31
2018-12-23T08:57:43.940Z,100784.22
2018-12-23T09:00:12.290Z,100793.96
2018-12-23T09:02:40.725Z,100792.62
2018-12-23T09:05:08.938Z,100798.54
2018-12-23T09:07:37.114Z,100801.62
2018-12-23T09:10:05.920Z,100791.31
2018-12-23T09:12:34.028Z,100797.00
2018-12-23T09:15:03.270Z,100788.12
2018-12-23T09:17:32.216Z,100788.47
2018-12-23T09:20:00.432Z,100791.88
2018-12-23T09:22:28.800Z,100789.92
2018-12-23T09:24:57.094Z,100788.41
2018-12-23T09:27:25.960Z,100791.95
2018-12-23T09:29:54.233Z,100786.77
2018-12-23T09:32:23.078Z,100781.70
2018-12-23T09:34:51.238Z,100775.78
2018-12-23T09:37:19.408Z,100771.51
2018-12-23T09:39:47.653Z,100775.05
2018-12-23T09:42:15.826Z,100778.38
2018-12-23T09:44:43.984Z,100772.46
2018-12-23T09:47:12.186Z,100766.08
2018-12-23T09:49:40.329Z,100766.84
2018-12-23T09:52:08.602Z,100759.45
2018-12-23T09:54:36.734Z,100758.91
2018-12-23T09:57:05.508Z,100753.77
2018-12-23T09:59:33.592Z,100757.80
2018-12-23T10:02:01.702Z,100750.47
2018-12-23T10:04:29.910Z,100750.09
2018-12-23T10:06:58.289Z,100742.89
2018-12-23T10:09:26.411Z,100747.11
2018-12-23T10:11:56.279Z,100735.35
2018-12-23T10:14:24.723Z,100734.72
2018-12-23T10:16:52.828Z,100741.58
2018-12-23T10:19:20.943Z,100740.23
2018-12-23T10:21:49.907Z,100727.43
2018-12-23T10:24:18.043Z,100719.60
2018-12-23T10:26:46.801Z,100712.34
2018-12-23T10:29:14.965Z,100723.43
2018-12-23T10:31:43.342Z,100727.59
2018-12-23T10:34:11.517Z,100719.78
2018-12-23T10:36:40.484Z,100718.33
2018-12-23T10:39:08.560Z,100719.58
2018-12-23T10:41:36.748Z,100715.04
2018-12-23T10:44:04.920Z,100720.74
2018-12-23T10:46:33.098Z,100716.95
2018-12-23T10:49:01.369Z,100714.85
2018-12-23T10:51:29.559Z,100708.20
2018-12-23T10:53:58.236Z,100711.43
2018-12-23T10:56:26.419Z,100700.74
2018-12-23T10:58:54.369Z,100699.27
2018-12-23T11:01:22.820Z,100687.53
2018-12-23T11:03:51.092Z,100687.78
2018-12-23T11:06:19.734Z,100683.27
2018-12-23T11:08:47.892Z,100680.82
2018-12-23T11:11:16.025Z,100680.20
2018-12-23T11:13:44.216Z,100677.36
2018-12-23T11:16:12.531Z,100669.45
2018-12-23T11:18:40.720Z,100664.89
2018-12-23T11:21:08.847Z,100655.08
2018-12-23T11:23:36.990Z,100656.98
2018-12-23T11:26:05.143Z,100647.48
2018-12-23T11:28:33.352Z,100638.08
2018-12-23T11:31:01.564Z,100636.06
2018-12-23T11:33:29.740Z,100632.63
2018-12-23T11:35:57.962Z,100632.55
2018-12-23T11:38:26.228Z,100632.53
2018-12-23T11:40:54.407Z,100630.14
2018-12-23T11:43:22.608Z,100628.37
2018-12-23T11:45:50.814Z,100623.20
2018-12-23T11:48:19.052Z,100629.52
2018-12-23T11:50:47.307Z,100622.75
2018-12-23T11:53:15.520Z,100626.91
2018-12-23T11:55:44.084Z,100617.60
2018-12-23T11:58:12.331Z,100609.61
2018-12-23T12:00:40.533Z,100605.37
2018-12-23T12:03:08.808Z,100605.88
2018-12-23T12:05:37.073Z,100599.86
2018-12-23T12:08:05.260Z,100601.68
2018-12-23T12:10:33.579Z,100595.16
2018-12-23T12:13:01.835Z,100588.22
2018-12-23T12:15:29.979Z,100580.36
2018-12-23T12:17:58.183Z,100581.49
2018-12-23T12:20:26.645Z,100577.45
2018-12-23T12:22:55.333Z,100573.20
2018-12-23T12:25:23.502Z,100571.34
2018-12-23T12:27:51.655Z,100569.70
2018-12-23T12:30:19.751Z,100573.98
2018-12-23T12:32:48.311Z,100572.49
2018-12-23T12:35:16.617Z,100573.95
2018-12-23T12:37:44.818Z,100582.42
2018-12-23T12:40:12.961Z,100577.86
2018-12-23T12:42:41.226Z,100571.43
2018-12-23T12:45:10.166Z,100573.83
2018-12-23T12:47:38.350Z,100575.48
2018-12-23T12:50:06.955Z,100576.11
2018-12-23T12:52:35.198Z,100564.12
2018-12-23T12:55:03.992Z,100563.19
2018-12-23T12:57:32.302Z,100544.05
2018-12-23T13:00:00.543Z,100551.59
2018-12-23T13:02:28.752Z,100545.16
2018-12-23T13:04:56.947Z,100538.76
2018-12-23T13:07:25.827Z,100539.77
2018-12-23T13:09:54.062Z,100545.91
2018-12-23T13:12:22.661Z,100536.27
2018-12-23T13:14:50.929Z,100527.88
2018-12-23T13:17:19.133Z,100528.30
2018-12-23T13:19:47.417Z,100538.13
2018-12-23T13:22:15.553Z,100532.00
2018-12-23T13:24:43.723Z,100531.41
2018-12-23T13:27:11.871Z,100525.60
2018-12-23T13:29:40.098Z,100518.45
2018-12-23T13:32:08.297Z,100513.28
2018-12-23T13:34:36.691Z,100518.75
2018-12-23T13:37:04.945Z,100517.95
2018-12-23T13:39:33.101Z,100510.59
2018-12-23T13:42:27.144Z,100502.91
2018-12-23T13:45:12.202Z,100502.94
2018-12-23T13:49:04.376Z,100504.38
2018-12-23T13:52:51.965Z,100510.47
2018-12-23T13:55:42.123Z,100507.87
2018-12-23T13:58:36.303Z,100500.22
2018-12-23T14:02:27.269Z,100495.47
2018-12-23T14:06:15.155Z,100503.54
2018-12-23T14:11:03.157Z,100490.30
2018-12-23T14:13:31.696Z,100493.27
2018-12-23T14:15:59.901Z,100486.05
2018-12-23T14:18:28.242Z,100493.49
2018-12-23T14:20:57.145Z,100499.38
2018-12-23T14:23:25.759Z,100497.86
2018-12-23T14:25:53.927Z,100488.53
2018-12-23T14:28:22.148Z,100490.38
2018-12-23T14:30:51.003Z,100490.38
2018-12-23T14:33:19.207Z,100479.73
2018-12-23T14:35:47.395Z,100474.58
2018-12-23T14:38:15.599Z,100477.77
2018-12-23T14:40:43.785Z,100472.38
2018-12-23T14:43:12.112Z,100479.11
2018-12-23T14:45:40.272Z,100466.37
2018-12-23T14:48:08.534Z,100465.82
2018-12-23T14:50:36.938Z,100460.44
2018-12-23T14:53:05.102Z,100461.79
2018-12-23T14:55:33.276Z,100462.42
2018-12-23T14:58:01.545Z,100451.37
2018-12-23T15:00:30.311Z,100448.62
2018-12-23T15:02:58.596Z,100434.28
2018-12-23T15:05:27.802Z,100436.73
2018-12-23T15:07:56.338Z,100428.05
2018-12-23T15:10:25.333Z,100421.94
2018-12-23T15:12:53.664Z,100424.94
2018-12-23T15:15:22.656Z,100433.63
2018-12-23T15:17:51.211Z,100436.87
2018-12-23T15:20:19.340Z,100435.40
2018-12-23T15:22:47.481Z,100436.87
2018-12-23T15:25:16.903Z,100424.55
2018-12-23T15:27:45.603Z,100421.23
2018-12-23T15:30:13.905Z,100420.83
2018-12-23T15:32:42.165Z,100411.28
2018-12-23T15:35:10.361Z,100409.50
2018-12-23T15:37:38.773Z,100410.47
2018-12-23T15:40:07.256Z,100406.37
2018-12-23T15:42:35.455Z,100401.14
2018-12-23T15:45:03.886Z,100394.14
2018-12-23T15:47:32.027Z,100380.06
2018-12-23T15:50:00.215Z,100374.78
2018-12-23T15:52:28.692Z,100369.12
2018-12-23T15:54:57.029Z,100367.27
2018-12-23T15:57:25.585Z,100361.67
2018-12-23T15:59:53.732Z,100359.87
2018-12-23T16:02:21.838Z,100344.09
2018-12-23T16:04:49.965Z,100347.50
2018-12-23T16:07:18.176Z,100345.87
2018-12-23T16:09:51.149Z,100332.13
2018-12-23T16:12:16.546Z,100336.38
2018-12-23T16:14:44.699Z,100333.77
2018-12-23T16:17:13.274Z,100327.56
2018-12-23T16:19:41.429Z,100327.18
2018-12-23T16:22:09.644Z,100324.50
2018-12-23T16:24:37.835Z,100321.39
2018-12-23T16:27:06.107Z,100318.91
2018-12-23T16:29:34.397Z,100316.93
2018-12-23T16:32:03.385Z,100314.34
2018-12-23T16:34:31.736Z,100314.33
2018-12-23T16:37:00.326Z,100322.88
2018-12-23T16:39:28.781Z,100315.75
2018-12-23T16:41:56.977Z,100311.92
2018-12-23T16:44:25.153Z,100316.13
2018-12-23T16:46:53.418Z,100325.36
2018-12-23T16:49:21.629Z,100319.17
2018-12-23T16:51:49.904Z,100311.05
2018-12-23T16:54:18.203Z,100315.30
2018-12-23T16:56:46.419Z,100313.02
2018-12-23T16:59:14.596Z,100313.22
2018-12-23T17:01:42.735Z,100308.18
2018-12-23T17:04:10.908Z,100298.07
2018-12-23T17:06:39.351Z,100298.47
2018-12-23T17:09:07.838Z,100291.54
2018-12-23T17:11:36.153Z,100290.00
2018-12-23T17:14:04.531Z,100292.41
2018-12-23T17:16:32.708Z,100294.56
2018-12-23T17:19:00.874Z,100292.20
2018-12-23T17:21:29.253Z,100284.02
2018-12-23T17:23:57.595Z,100279.56
2018-12-23T17:26:25.788Z,100276.16
2018-12-23T17:28:54.033Z,100275.94
2018-12-23T17:31:22.458Z,100272.13
2018-12-23T17:33:51.169Z,100268.31
2018-12-23T17:36:19.350Z,100265.13
2018-12-23T17:38:47.583Z,100259.97
2018-12-23T17:41:15.790Z,100259.84
2018-12-23T17:43:44.123Z,100251.58
2018-12-23T17:46:12.407Z,100247.83
2018-12-23T17:48:40.602Z,100255.20
2018-12-23T17:51:08.748Z,100250.94
2018-12-23T17:53:36.890Z,100247.34
2018-12-23T17:56:05.000Z,100243.44
2018-12-23T17:58:33.204Z,100240.63
2018-12-23T18:01:01.541Z,100238.16
2018-12-23T18:03:29.764Z,100235.39
2018-12-23T18:05:57.985Z,100230.73
2018-12-23T18:08:26.315Z,100231.45
2018-12-23T18:10:54.524Z,100223.61
2018-12-23T18:13:22.734Z,100223.31
2018-12-23T18:15:50.947Z,100218.53
2018-12-23T18:18:19.244Z,100210.18
2018-12-23T18:20:47.452Z,100208.92
2018-12-23T18:23:15.616Z,100214.00
2018-12-23T18:25:43.799Z,100223.91
2018-12-23T18:28:11.992Z,100211.61
2018-12-23T18:30:40.256Z,100210.48
2018-12-23T18:33:08.420Z,100202.42
2018-12-23T18:35:36.622Z,100200.58
2018-12-23T18:38:04.825Z,100206.23
2018-12-23T18:40:33.463Z,100203.67
2018-12-23T18:43:02.324Z,100196.13
2018-12-23T18:45:31.476Z,100194.91
2018-12-23T18:48:00.570Z,100202.34
2018-12-23T18:50:28.945Z,100196.64
2018-12-23T18:52:58.005Z,100191.69
2018-12-23T18:55:29.463Z,100190.47
2018-12-23T18:57:57.604Z,100190.26
2018-12-23T19:00:25.803Z,100183.96
2018-12-23T19:02:56.621Z,100182.09
2018-12-23T19:05:24.901Z,100171.14
2018-12-23T19:07:58.789Z,100172.39
2018-12-23T19:11:23.434Z,100169.08
2018-12-23T19:16:26.603Z,100153.19
2018-12-23T19:19:11.453Z,100160.81
2018-12-23T19:26:17.797Z,100148.53
2018-12-23T19:29:00.412Z,100148.34
2018-12-23T19:33:54.468Z,100141.02
2018-12-23T19:36:38.417Z,100125.63
2018-12-23T19:39:28.431Z,100125.12
2018-12-23T19:43:22.214Z,100121.03
2018-12-23T19:46:07.212Z,100132.47
2018-12-23T19:49:07.388Z,100142.37
2018-12-23T19:54:57.091Z,100135.23
2018-12-23T19:57:39.804Z,100142.05
2018-12-23T20:00:54.831Z,100140.66
2018-12-23T20:03:48.701Z,100130.66
2018-12-23T20:13:07.775Z,100131.91
2018-12-23T20:16:33.947Z,100142.74
2018-12-23T20:19:37.585Z,100139.95
2018-12-23T20:23:04.063Z,100143.69
2018-12-23T20:26:09.672Z,100138.83
2018-12-23T20:29:35.866Z,100136.98
2018-12-23T20:32:35.618Z,100135.23
2018-12-23T20:36:04.844Z,100127.61
2018-12-23T20:39:04.826Z,100125.97
2018-12-23T20:42:31.031Z,100113.97
2018-12-23T20:45:32.981Z,100102.09
2018-12-23T20:48:59.086Z,100100.12
2018-12-23T20:51:45.576Z,100096.91
2018-12-23T20:54:36.003Z,100095.44
2018-12-23T20:57:46.530Z,100098.02
2018-12-23T21:00:45.885Z,100093.73
2018-12-23T21:04:12.290Z,100092.30
2018-12-23T21:07:15.220Z,100080.45
2018-12-23T21:10:07.924Z,100082.78
2018-12-23T21:13:34.099Z,100075.58
2018-12-23T21:16:23.411Z,100080.86
2018-12-23T21:19:49.641Z,100091.96
2018-12-23T21:22:49.082Z,100089.81
2018-12-23T21:26:16.026Z,100088.48
2018-12-23T21:29:15.614Z,100090.94
2018-12-23T21:32:43.306Z,100079.09
2018-12-23T21:35:39.223Z,100072.26
2018-12-23T21:38:42.769Z,100073.59
2018-12-23T21:42:09.366Z,100084.13
2018-12-23T21:45:15.770Z,100082.34
2018-12-23T21:48:15.355Z,100084.31
2018-12-23T21:51:41.572Z,100075.44
2018-12-23T21:54:41.705Z,100068.95
2018-12-23T21:57:54.432Z,100063.30
2018-12-23T22:00:49.070Z,100061.20
2018-12-23T22:07:29.455Z,100076.69
2018-12-23T22:10:29.327Z,100083.33
2018-12-23T22:13:54.009Z,100072.02
2018-12-23T22:20:00.397Z,100061.35
2018-12-23T22:22:47.786Z,100054.02
2018-12-23T22:25:27.842Z,100056.52
2018-12-23T22:28:15.163Z,100049.22
2018-12-23T22:30:55.451Z,100041.69
2018-12-23T22:33:42.699Z,100050.56
2018-12-23T22:36:23.649Z,100044.14
2018-12-23T22:39:12.893Z,100039.86
2018-12-23T22:41:52.956Z,100060.44
2018-12-23T22:44:40.213Z,100063.33
2018-12-23T22:47:21.611Z,100063.81
2018-12-23T22:50:09.069Z,100054.23
2018-12-23T22:52:49.334Z,100046.38
2018-12-23T22:55:36.808Z,100040.16
2018-12-23T22:58:17.148Z,100029.95
2018-12-23T23:03:58.519Z,100030.75
2018-12-23T23:06:45.782Z,100025.08
2018-12-23T23:09:26.312Z,100027.94
2018-12-23T23:12:13.554Z,100017.88
2018-12-23T23:14:54.068Z,100023.26
2018-12-23T23:17:41.498Z,100019.78
2018-12-23T23:20:22.062Z,100017.96
2018-12-23T23:23:09.303Z,100000.33
2018-12-23T23:29:16.337Z,100012.30
2018-12-23T23:32:03.597Z,100016.30
2018-12-23T23:34:44.463Z,100023.19
2018-12-23T23:37:50.090Z,100022.36
2018-12-23T23:40:37.370Z,100034.20
2018-12-23T23:43:18.021Z,100039.73
2018-12-23T23:50:37.300Z,100042.72
